Time;durP1;ratioP1;P1;durP2;ratioP2;P2;SDS_P1;SDS_P2;PMS_P1;PMS_P2;Temp;Humidity;BMP_temperature;BMP_pressure;BME280_temperature;BME280_humidity;BME280_pressure;Samples;Min_cycle;Max_cycle;Signal;HPM_P1;HPM_P2
2022/03/26 00:00:13;;;;;;;80.63;75.23;;;;;;;6.83;100.00;103251.72;1807896;77;86617;-70
2022/03/26 00:05:58;;;;;;;80.87;75.13;;;;;;;6.81;100.00;103259.34;1946338;72;86523;-68
2022/03/26 00:11:44;;;;;;;84.37;78.20;;;;;;;6.67;100.00;103257.56;1907384;74;39702;-69
2022/03/26 00:17:29;;;;;;;82.40;75.77;;;;;;;6.52;100.00;103265.06;1869495;75;86327;-67
2022/03/26 00:23:22;;;;;;;82.27;75.93;;;;;;;6.16;100.00;103259.09;1864753;75;86923;-67
2022/03/26 00:29:06;;;;;;;84.40;77.57;;;;;;;6.04;100.00;103259.82;1801341;77;86275;-69
2022/03/26 00:34:52;;;;;;;78.07;71.70;;;;;;;6.16;100.00;103249.44;1898811;74;39444;-67
2022/03/26 00:40:37;;;;;;;85.77;78.97;;;;;;;6.18;100.00;103262.53;1867901;76;86565;-68
2022/03/26 00:46:22;;;;;;;81.40;74.70;;;;;;;6.35;100.00;103253.45;1866677;76;86888;-68
2022/03/26 00:52:09;;;;;;;86.23;79.27;;;;;;;6.27;100.00;103258.59;1810381;77;86655;-67
2022/03/26 00:57:51;;;;;;;84.07;77.67;;;;;;;6.33;100.00;103256.40;1911908;74;39462;-69
2022/03/26 01:03:37;;;;;;;86.43;79.30;;;;;;;6.39;100.00;103263.91;1853814;75;86438;-69
2022/03/26 01:09:21;;;;;;;86.47;79.57;;;;;;;6.33;100.00;103258.33;1873238;74;86898;-69
2022/03/26 01:15:09;;;;;;;87.80;80.80;;;;;;;6.32;100.00;103256.09;1801175;77;86672;-67
2022/03/26 01:20:53;;;;;;;86.77;79.77;;;;;;;6.21;100.00;103259.89;1912679;74;39561;-68
2022/03/26 01:26:37;;;;;;;88.00;81.20;;;;;;;6.35;100.00;103256.22;1830166;75;86614;-68
2022/03/26 01:32:21;;;;;;;83.93;76.50;;;;;;;6.36;100.00;103253.27;1872436;74;86488;-69
2022/03/26 01:38:08;;;;;;;86.37;79.60;;;;;;;6.28;100.00;103245.12;1808718;76;86289;-68
2022/03/26 01:43:54;;;;;;;85.03;77.93;;;;;;;6.02;100.00;103237.97;1861529;73;39729;-66
2022/03/26 01:49:38;;;;;;;86.07;78.93;;;;;;;6.27;100.00;103240.66;1834057;77;86604;-68
2022/03/26 01:55:25;;;;;;;80.97;74.43;;;;;;;5.86;100.00;103240.44;1886096;74;86648;-67
2022/03/26 02:01:09;;;;;;;81.50;74.90;;;;;;;5.66;100.00;103248.98;1803152;77;86797;-69
2022/03/26 02:06:55;;;;;;;79.13;73.03;;;;;;;5.54;100.00;103246.41;1894792;74;39584;-69
2022/03/26 02:12:43;;;;;;;80.70;73.93;;;;;;;5.66;100.00;103242.09;1853335;75;86084;-69
2022/03/26 02:18:29;;;;;;;83.87;77.17;;;;;;;5.63;100.00;103240.25;1853217;76;86698;-67
2022/03/26 02:24:16;;;;;;;82.07;75.47;;;;;;;5.63;100.00;103238.36;1843542;76;86514;-68
2022/03/26 02:30:01;;;;;;;86.13;78.60;;;;;;;5.60;100.00;103240.65;1916844;74;86340;-68
2022/03/26 02:35:46;;;;;;;85.37;78.13;;;;;;;5.61;100.00;103228.03;1908017;74;39684;-69
2022/03/26 02:41:31;;;;;;;92.17;84.43;;;;;;;5.62;100.00;103243.53;1842486;77;86881;-68
2022/03/26 02:47:16;;;;;;;89.40;81.90;;;;;;;5.52;100.00;103240.21;1817984;77;85393;-68
2022/03/26 02:53:01;;;;;;;89.40;81.70;;;;;;;5.42;100.00;103235.03;1924213;73;86392;-69
2022/03/26 02:58:44;;;;;;;89.67;82.07;;;;;;;5.44;100.00;103237.05;1914802;74;39387;-67
2022/03/26 03:04:29;;;;;;;91.50;83.70;;;;;;;5.39;100.00;103233.19;1854800;76;85718;-67
2022/03/26 03:10:16;;;;;;;86.73;78.97;;;;;;;5.42;100.00;103236.41;1822767;77;86378;-67
2022/03/26 03:16:01;;;;;;;90.10;82.13;;;;;;;5.34;100.00;103233.77;1928178;73;86614;-67
2022/03/26 03:21:49;;;;;;;92.60;84.53;;;;;;;5.37;100.00;103231.99;1876804;73;39549;-68
2022/03/26 03:27:36;;;;;;;90.73;82.73;;;;;;;5.25;100.00;103238.19;1877575;76;86775;-68
2022/03/26 03:33:25;;;;;;;93.43;84.83;;;;;;;5.31;100.00;103238.27;1871419;75;86711;-68
2022/03/26 03:39:09;;;;;;;88.53;80.63;;;;;;;5.22;100.00;103226.19;1810582;77;85611;-67
2022/03/26 03:44:57;;;;;;;89.57;81.53;;;;;;;5.21;100.00;103225.33;1862870;73;39601;-67
2022/03/26 03:50:41;;;;;;;85.00;77.60;;;;;;;5.24;100.00;103227.69;1806242;78;86703;-69
2022/03/26 03:56:25;;;;;;;74.80;68.33;;;;;;;4.84;100.00;103240.03;1830195;78;86683;-69
2022/03/26 04:02:10;;;;;;;75.53;69.23;;;;;;;4.46;100.00;103239.23;1800911;77;86474;-68
2022/03/26 04:07:56;;;;;;;78.80;72.43;;;;;;;4.45;100.00;103246.31;1911096;74;39647;-67
2022/03/26 04:13:41;;;;;;;82.10;75.37;;;;;;;4.71;100.00;103244.48;1983223;69;86140;-68
2022/03/26 04:19:27;;;;;;;78.83;72.07;;;;;;;4.77;100.00;103251.48;1802466;78;86326;-68
2022/03/26 04:25:12;;;;;;;91.13;82.50;;;;;;;4.97;100.00;103255.90;1806801;77;85689;-68
2022/03/26 04:30:59;;;;;;;88.20;79.67;;;;;;;4.94;100.00;103254.91;1946334;72;86643;-67
2022/03/26 04:36:43;;;;;;;89.30;80.97;;;;;;;4.86;100.00;103252.25;1902895;74;39488;-67
2022/03/26 04:42:27;;;;;;;95.77;85.90;;;;;;;4.94;100.00;103247.51;1867217;76;86319;-67
2022/03/26 04:48:14;;;;;;;81.87;74.03;;;;;;;4.68;100.00;103253.98;1806537;76;86455;-67
2022/03/26 04:54:01;;;;;;;75.37;69.20;;;;;;;4.52;100.00;103249.50;1918431;72;86728;-68
2022/03/26 04:59:44;;;;;;;83.33;75.77;;;;;;;4.20;100.00;103258.55;1914652;74;39641;-69
2022/03/26 05:05:29;;;;;;;80.17;73.10;;;;;;;4.51;100.00;103253.80;1851876;75;87013;-67
2022/03/26 05:11:15;;;;;;;88.07;79.67;;;;;;;4.68;100.00;103264.13;1838329;76;86243;-69
2022/03/26 05:13:46;;;;;;;87.35;78.80;;;;;;;4.79;100.00;103267.28;1764469;77;936647;-68
2022/03/26 05:19:30;;;;;;;92.67;83.97;;;;;;;4.54;100.00;103260.30;1825997;76;86726;-67
2022/03/26 05:28:21;;;;;;;85.63;77.23;;;;;;;4.57;100.00;103266.84;1872818;75;86784;-67
2022/03/26 05:34:05;;;;;;;80.67;73.93;;;;;;;3.85;100.00;103271.03;1807560;77;86526;-67
2022/03/26 05:39:50;;;;;;;77.13;70.50;;;;;;;3.65;100.00;103282.98;1891347;74;39595;-68
2022/03/26 05:42:23;;;;;;;79.23;72.37;;;;;;;3.61;100.00;103288.50;1842956;76;934694;-67
2022/03/26 05:48:08;;;;;;;83.40;76.00;;;;;;;3.87;100.00;103290.42;1869555;75;86854;-69
2022/03/26 05:53:54;;;;;;;88.30;79.93;;;;;;;4.01;100.00;103299.28;1901327;74;39538;-69
2022/03/26 05:59:38;;;;;;;90.73;81.90;;;;;;;4.15;100.00;103306.41;1840122;76;86587;-67
2022/03/26 06:05:21;;;;;;;87.27;78.73;;;;;;;4.33;100.00;103305.04;1867626;75;86694;-68
2022/03/26 06:11:08;;;;;;;96.10;85.57;;;;;;;4.39;100.00;103311.20;1808647;77;86506;-69
2022/03/26 06:20:02;;;;;;;91.60;82.23;;;;;;;4.41;100.00;103319.25;1899939;75;86700;-66
2022/03/26 06:25:47;;;;;;;86.73;79.00;;;;;;;4.16;100.00;103322.70;1864002;73;39567;-67
2022/03/26 06:31:32;;;;;;;82.07;74.93;;;;;;;4.02;100.00;103324.89;1828031;76;86650;-68
2022/03/26 06:37:15;;;;;;;85.23;77.13;;;;;;;4.09;100.00;103323.11;1837882;75;86490;-68
2022/03/26 06:43:01;;;;;;;88.03;79.50;;;;;;;4.36;100.00;103339.61;1907258;73;85758;-68
2022/03/26 06:48:47;;;;;;;92.57;83.37;;;;;;;4.62;100.00;103340.61;1903133;73;39672;-69
2022/03/26 06:57:46;;;;;;;92.70;84.07;;;;;;;4.96;100.00;103332.72;1903858;74;39573;-68
2022/03/26 07:00:23;;;;;;;92.87;83.97;;;;;;;5.14;100.00;103341.45;1857378;75;934757;-67
2022/03/26 07:06:07;;;;;;;93.53;85.00;;;;;;;5.33;100.00;103335.92;1808047;77;86541;-67
2022/03/26 07:11:52;;;;;;;97.23;88.07;;;;;;;5.39;100.00;103334.62;1895430;74;39647;-69
2022/03/26 07:17:42;;;;;;;91.50;82.57;;;;;;;5.66;100.00;103333.61;1825897;76;86533;-69
2022/03/26 07:23:27;;;;;;;94.70;85.57;;;;;;;5.83;100.00;103333.72;1859584;75;86974;-69
2022/03/26 07:29:13;;;;;;;96.90;87.77;;;;;;;6.14;100.00;103332.11;1819328;77;86114;-68
2022/03/26 07:34:58;;;;;;;97.77;88.00;;;;;;;6.39;100.00;103338.97;1917989;73;86289;-67
2022/03/26 07:40:44;;;;;;;98.73;89.67;;;;;;;6.92;100.00;103334.79;1913887;74;39749;-67
2022/03/26 07:46:28;;;;;;;99.73;89.90;;;;;;;7.04;100.00;103340.09;1854325;76;86104;-67
2022/03/26 07:52:14;;;;;;;99.90;90.17;;;;;;;7.55;100.00;103335.09;1834379;76;86521;-67
2022/03/26 07:57:57;;;;;;;99.47;90.20;;;;;;;7.81;100.00;103334.91;1912473;74;86082;-68
2022/03/26 08:03:43;;;;;;;102.00;92.37;;;;;;;8.23;100.00;103338.77;1823570;78;86286;-70
2022/03/26 08:09:28;;;;;;;102.03;92.43;;;;;;;8.74;100.00;103333.55;1853956;75;85702;-67
2022/03/26 08:15:12;;;;;;;102.83;93.33;;;;;;;9.01;100.00;103328.34;1909234;73;86418;-68
2022/03/26 08:20:56;;;;;;;101.40;92.67;;;;;;;9.45;100.00;103333.71;1912246;73;86565;-69
2022/03/26 08:26:41;;;;;;;94.00;85.77;;;;;;;10.05;100.00;103326.86;1822829;78;85569;-67
2022/03/26 08:32:25;;;;;;;88.57;80.67;;;;;;;10.26;100.00;103320.15;1793421;78;86292;-69
2022/03/26 08:38:10;;;;;;;75.70;68.40;;;;;;;10.71;100.00;103312.55;1810717;77;85761;-69
2022/03/26 08:43:54;;;;;;;72.77;65.97;;;;;;;10.92;100.00;103313.00;1860297;73;39536;-70
2022/03/26 08:49:40;;;;;;;79.33;71.73;;;;;;;11.15;100.00;103310.13;1838202;75;86604;-68
2022/03/26 08:55:25;;;;;;;69.43;63.07;;;;;;;11.42;100.00;103317.13;1815651;78;86391;-69
2022/03/26 09:01:08;;;;;;;62.30;56.43;;;;;;;11.69;100.00;103316.25;1809733;77;86335;-73
2022/03/26 09:06:52;;;;;;;61.03;55.00;;;;;;;11.83;100.00;103314.52;1878790;75;39442;-69
2022/03/26 09:12:36;;;;;;;57.17;51.80;;;;;;;12.13;100.00;103308.97;1829094;76;86180;-71
2022/03/26 09:18:24;;;;;;;56.87;51.47;;;;;;;12.43;100.00;103308.95;1865042;76;86494;-74
2022/03/26 09:24:13;;;;;;;57.70;52.23;;;;;;;12.60;100.00;103309.97;1807847;77;86367;-68
2022/03/26 09:29:56;;;;;;;53.97;48.23;;;;;;;12.55;100.00;103306.19;1929713;72;86206;-73
2022/03/26 09:35:41;;;;;;;54.83;48.63;;;;;;;12.69;100.00;103309.93;1807489;78;85485;-69
2022/03/26 09:41:26;;;;;;;48.87;43.97;;;;;;;12.87;100.00;103305.35;1790479;79;86285;-71
2022/03/26 09:47:11;;;;;;;48.33;43.07;;;;;;;13.13;100.00;103304.37;1862384;74;85440;-72
2022/03/26 09:52:58;;;;;;;46.00;41.23;;;;;;;13.35;100.00;103306.55;1914834;72;86277;-73
2022/03/26 09:58:43;;;;;;;43.40;38.97;;;;;;;13.58;100.00;103305.10;1786789;78;86707;-68
2022/03/26 10:04:31;;;;;;;37.87;33.87;;;;;;;13.81;100.00;103302.27;1851350;76;86780;-72
2022/03/26 10:10:24;;;;;;;33.07;29.53;;;;;;;13.97;100.00;103305.67;1842273;76;85756;-68
2022/03/26 10:16:10;;;;;;;32.90;29.27;;;;;;;14.14;100.00;103305.73;1874184;75;86427;-69
2022/03/26 10:21:55;;;;;;;30.03;26.93;;;;;;;14.12;100.00;103303.16;1953154;73;86600;-68
2022/03/26 10:27:43;;;;;;;30.30;25.97;;;;;;;14.42;100.00;103307.13;1793420;78;86759;-69
2022/03/26 10:33:30;;;;;;;27.70;24.80;;;;;;;14.48;100.00;103303.88;1854366;76;86615;-69
2022/03/26 10:39:21;;;;;;;27.73;24.73;;;;;;;14.63;100.00;103295.78;1833006;76;86468;-68
2022/03/26 10:45:11;;;;;;;30.70;24.87;;;;;;;14.80;100.00;103294.39;1803837;77;86191;-73
2022/03/26 10:50:58;;;;;;;27.27;24.50;;;;;;;14.77;100.00;103291.53;1881487;75;85436;-69
2022/03/26 10:56:50;;;;;;;29.43;24.37;;;;;;;14.96;100.00;103287.93;1867494;75;39624;-68
2022/03/26 11:02:34;;;;;;;25.00;22.50;;;;;;;15.11;100.00;103287.31;1795845;77;85695;-71
2022/03/26 11:08:19;;;;;;;26.47;23.43;;;;;;;15.03;100.00;103276.00;1864946;76;86134;-69
2022/03/26 11:14:09;;;;;;;25.60;23.10;;;;;;;15.14;100.00;103277.02;1803902;76;86289;-68
2022/03/26 11:16:57;;;;;;;26.67;23.63;;;;;;;15.13;100.00;103278.11;1746644;76;937776;-68
2022/03/26 11:19:37;;;;;;;25.17;22.77;;;;;;;15.41;100.00;103280.75;1755385;79;939002;-71
2022/03/26 11:22:25;;;;;;;26.93;24.03;;;;;;;15.51;100.00;103274.48;1755563;78;940964;-72
2022/03/26 11:25:05;;;;;;;27.13;24.30;;;;;;;15.45;100.00;103279.98;1762567;78;940887;-72
2022/03/26 11:28:06;;;;;;;26.10;23.30;;;;;;;15.29;100.00;103277.23;1761133;78;939747;-68
2022/03/26 11:37:20;;;;;;;25.73;23.03;;;;;;;15.64;100.00;103276.36;1855416;76;86813;-69
2022/03/26 11:43:03;;;;;;;26.20;23.47;;;;;;;15.64;100.00;103269.91;1874277;73;85687;-72
2022/03/26 11:51:58;;;;;;;24.83;22.43;;;;;;;16.17;100.00;103271.95;1894640;74;39467;-69
2022/03/26 11:57:41;;;;;;;22.77;20.63;;;;;;;16.08;100.00;103251.95;1807210;78;85988;-69
2022/03/26 12:03:31;;;;;;;20.67;18.87;;;;;;;16.26;100.00;103249.30;1853501;75;86351;-70
2022/03/26 12:09:32;;;;;;;19.30;17.60;;;;;;;16.40;100.00;103242.16;1898809;72;86361;-69
2022/03/26 12:15:36;;;;;;;19.37;17.50;;;;;;;16.46;100.00;103244.45;1839293;75;86133;-69
2022/03/26 12:21:25;;;;;;;19.20;17.33;;;;;;;16.39;100.00;103235.69;1785428;79;86616;-70
2022/03/26 12:27:11;;;;;;;17.70;15.97;;;;;;;16.64;100.00;103229.51;1808076;77;86273;-71
2022/03/26 12:32:55;;;;;;;20.83;16.07;;;;;;;16.74;100.00;103225.91;1908780;74;39767;-69
2022/03/26 12:38:39;;;;;;;16.73;15.20;;;;;;;16.72;100.00;103218.34;1832454;77;86350;-68
2022/03/26 12:44:24;;;;;;;18.07;16.67;;;;;;;16.87;100.00;103219.84;1803041;78;85568;-68
2022/03/26 12:50:11;;;;;;;18.87;17.03;;;;;;;16.58;100.00;103209.52;1808602;77;86458;-71
2022/03/26 12:59:02;;;;;;;16.13;14.83;;;;;;;16.83;100.00;103199.03;1908311;74;85269;-71
2022/03/26 13:01:35;;;;;;;16.80;15.50;;;;;;;16.91;100.00;103196.27;1812739;77;938010;-67
2022/03/26 13:04:07;;;;;;;17.93;16.43;;;;;;;16.67;100.00;103197.24;1798155;78;939567;-70
2022/03/26 13:06:38;;;;;;;16.73;15.23;;;;;;;16.78;100.00;103195.63;1759571;79;939974;-68
2022/03/26 13:09:09;;;;;;;17.07;15.43;;;;;;;16.98;100.00;103198.30;1759390;80;939641;-67
2022/03/26 13:11:39;;;;;;;16.62;15.25;;;;;;;16.96;100.00;103197.16;1780875;79;939579;-67
2022/03/26 13:14:11;;;;;;;18.50;16.80;;;;;;;16.97;100.00;103195.20;1796532;78;939863;-67
2022/03/26 13:16:43;;;;;;;18.25;16.62;;;;;;;16.90;100.00;103194.02;1790269;78;940087;-67
2022/03/26 13:22:29;;;;;;;18.87;17.10;;;;;;;17.04;100.00;103188.77;1854183;76;85408;-68
2022/03/26 13:28:18;;;;;;;20.23;18.47;;;;;;;17.21;100.00;103183.25;1905915;74;85309;-69
2022/03/26 13:34:10;;;;;;;17.97;16.37;;;;;;;17.10;100.00;103177.31;1938525;72;86495;-68
2022/03/26 13:39:59;;;;;;;20.43;18.53;;;;;;;17.24;100.00;103178.48;1899081;74;39586;-69
2022/03/26 13:45:47;;;;;;;17.37;15.87;;;;;;;17.33;100.00;103155.52;1910360;74;39682;-69
2022/03/26 13:51:33;;;;;;;16.33;14.97;;;;;;;17.21;100.00;103155.72;1829141;76;86369;-69
2022/03/26 13:57:18;;;;;;;18.13;16.57;;;;;;;17.10;100.00;103161.02;1886387;75;86734;-69
2022/03/26 14:03:05;;;;;;;17.43;15.83;;;;;;;17.16;100.00;103155.13;1860504;76;86578;-68
2022/03/26 14:08:49;;;;;;;16.13;14.93;;;;;;;17.28;100.00;103147.31;1911939;74;39591;-69
2022/03/26 14:14:34;;;;;;;16.90;15.40;;;;;;;17.30;100.00;103147.05;1792788;77;86560;-69
2022/03/26 14:20:19;;;;;;;17.27;15.40;;;;;;;17.01;100.00;103152.27;1869350;74;85443;-69
2022/03/26 14:26:03;;;;;;;19.30;18.00;;;;;;;17.31;100.00;103145.94;1906900;73;86483;-69
2022/03/26 14:31:47;;;;;;;17.40;15.70;;;;;;;17.25;100.00;103135.23;1911408;74;39598;-68
2022/03/26 14:37:31;;;;;;;16.43;14.93;;;;;;;17.26;100.00;103129.91;1840541;76;86632;-70
2022/03/26 14:43:15;;;;;;;15.90;14.60;;;;;;;17.08;100.00;103123.36;1837669;76;86251;-69
2022/03/26 14:49:00;;;;;;;18.30;16.50;;;;;;;17.11;100.00;103125.64;1927129;73;85996;-68
2022/03/26 14:54:44;;;;;;;18.77;16.97;;;;;;;17.20;100.00;103118.94;1896460;74;39626;-70
2022/03/26 15:00:28;;;;;;;18.37;16.60;;;;;;;17.18;100.00;103119.77;1867488;75;87012;-68
2022/03/26 15:06:13;;;;;;;17.13;15.60;;;;;;;17.13;100.00;103110.75;1904081;72;86444;-70
2022/03/26 15:11:59;;;;;;;18.47;16.67;;;;;;;17.20;100.00;103105.71;1892662;73;85345;-68
2022/03/26 15:17:45;;;;;;;18.97;17.07;;;;;;;17.36;100.00;103105.23;1906750;74;39584;-71
2022/03/26 15:23:32;;;;;;;197.23;75.30;;;;;;;17.33;100.00;103102.13;1817710;76;86374;-69
2022/03/26 15:29:16;;;;;;;21.83;17.10;;;;;;;17.22;100.00;103094.22;1827331;76;85235;-67
2022/03/26 15:35:01;;;;;;;21.43;18.70;;;;;;;17.17;100.00;103093.63;1919354;74;86539;-68
2022/03/26 15:40:51;;;;;;;23.30;20.33;;;;;;;16.66;100.00;103099.56;1900812;73;39540;-66
2022/03/26 15:46:38;;;;;;;21.17;19.00;;;;;;;16.91;100.00;103096.04;1825603;76;85395;-68
2022/03/26 15:52:24;;;;;;;23.67;20.97;;;;;;;16.95;100.00;103097.18;1869412;75;86717;-66
2022/03/26 15:58:07;;;;;;;22.60;19.67;;;;;;;17.09;100.00;103084.34;1861226;75;86680;-67
2022/03/26 16:07:02;;;;;;;21.80;19.50;;;;;;;16.96;100.00;103088.20;1895225;75;86013;-66
2022/03/26 16:09:32;;;;;;;21.03;18.90;;;;;;;16.87;100.00;103085.63;1847796;76;937449;-67
2022/03/26 16:12:02;;;;;;;21.40;18.97;;;;;;;16.92;100.00;103087.91;1803549;78;940749;-66
2022/03/26 16:14:33;;;;;;;20.93;18.67;;;;;;;16.87;100.00;103088.44;1740678;77;940943;-66
2022/03/26 16:17:04;;;;;;;20.93;18.83;;;;;;;16.81;100.00;103095.42;1791404;79;940880;-67
2022/03/26 16:19:35;;;;;;;22.07;19.77;;;;;;;16.88;100.00;103090.13;1779422;79;940063;-67
2022/03/26 16:22:07;;;;;;;20.93;18.87;;;;;;;16.75;100.00;103085.30;1791274;78;940870;-68
2022/03/26 16:24:42;;;;;;;22.10;19.47;;;;;;;16.69;100.00;103092.55;1779593;79;940962;-67
2022/03/26 16:27:12;;;;;;;22.00;19.67;;;;;;;16.72;100.00;103090.07;1791312;79;940992;-67
2022/03/26 16:29:43;;;;;;;21.87;19.53;;;;;;;16.72;100.00;103088.67;1779596;79;940730;-68
2022/03/26 16:32:14;;;;;;;22.20;19.90;;;;;;;16.65;100.00;103092.81;1791391;79;939865;-68
2022/03/26 16:34:45;;;;;;;23.83;20.35;;;;;;;16.63;100.00;103096.46;1779635;79;939588;-68
2022/03/26 16:37:15;;;;;;;28.50;19.83;;;;;;;16.73;100.00;103097.34;1789030;79;939942;-70
2022/03/26 16:46:12;;;;;;;23.73;20.20;;;;;;;16.62;100.00;103094.21;1887037;73;86637;-69
2022/03/26 16:48:42;;;;;;;23.90;19.97;;;;;;;16.56;100.00;103098.64;1769218;77;940031;-66
2022/03/26 16:51:13;;;;;;;23.73;21.25;;;;;;;16.63;100.00;103097.31;1798972;77;940863;-66
2022/03/26 16:53:44;;;;;;;24.40;19.65;;;;;;;16.54;100.00;103097.50;1787084;76;940826;-66
2022/03/26 16:59:28;;;;;;;22.27;19.90;;;;;;;16.42;100.00;103091.25;1804509;78;86867;-69
2022/03/26 17:05:15;;;;;;;21.83;19.60;;;;;;;16.40;100.00;103094.31;1814458;77;85827;-70
2022/03/26 17:11:03;;;;;;;20.50;18.37;;;;;;;16.26;100.00;103097.84;1912065;73;86789;-67
2022/03/26 17:16:51;;;;;;;19.27;17.30;;;;;;;16.20;100.00;103094.73;1898290;74;39745;-68
2022/03/26 17:22:37;;;;;;;18.57;17.03;;;;;;;16.03;100.00;103095.42;1851608;76;85558;-68
2022/03/26 17:28:22;;;;;;;18.73;17.13;;;;;;;15.90;100.00;103106.53;1857843;76;86281;-69
2022/03/26 17:34:07;;;;;;;18.50;16.57;;;;;;;15.82;100.00;103107.02;1803091;77;86294;-68
2022/03/26 17:39:52;;;;;;;16.97;15.77;;;;;;;15.66;100.00;103110.20;1855643;73;39565;-67
2022/03/26 17:45:38;;;;;;;16.90;15.37;;;;;;;15.50;100.00;103116.76;1843544;76;86471;-69
2022/03/26 17:51:24;;;;;;;15.83;14.63;;;;;;;15.26;100.00;103116.19;1820296;78;86297;-67
2022/03/26 17:57:09;;;;;;;16.07;14.87;;;;;;;15.25;100.00;103113.63;1910753;74;85450;-68
2022/03/26 18:02:52;;;;;;;16.73;15.40;;;;;;;15.09;100.00;103115.41;1903947;74;39710;-70
2022/03/26 18:08:37;;;;;;;17.03;15.77;;;;;;;15.27;100.00;103122.64;1794240;78;85576;-71
2022/03/26 18:14:22;;;;;;;16.43;15.03;;;;;;;14.86;100.00;103124.05;1864803;76;86708;-70
2022/03/26 18:20:08;;;;;;;19.43;16.83;;;;;;;14.76;100.00;103132.31;1874200;75;86632;-71
2022/03/26 18:25:52;;;;;;;17.97;16.67;;;;;;;14.72;100.00;103126.94;1893998;74;40470;-72
2022/03/26 18:31:36;;;;;;;18.00;16.60;;;;;;;14.21;100.00;103130.28;1830561;76;85915;-72
2022/03/26 18:37:21;;;;;;;19.03;17.53;;;;;;;14.12;100.00;103137.39;1869600;75;85681;-70
2022/03/26 18:43:07;;;;;;;17.33;15.90;;;;;;;13.84;100.00;103141.66;1806090;77;85986;-70
2022/03/26 18:48:51;;;;;;;19.90;18.30;;;;;;;13.64;100.00;103147.17;1905472;74;39660;-70
2022/03/26 18:54:36;;;;;;;19.20;17.73;;;;;;;13.37;100.00;103149.39;1869236;75;86701;-68
2022/03/26 19:00:35;;;;;;;21.03;19.23;;;;;;;13.13;100.00;103157.86;1879388;75;85936;-70
2022/03/26 19:06:20;;;;;;;21.73;20.40;;;;;;;12.95;100.00;103160.77;1861590;75;86086;-73
2022/03/26 19:12:07;;;;;;;23.60;22.20;;;;;;;12.70;100.00;103166.62;1879076;75;86287;-72
2022/03/26 19:17:52;;;;;;;23.20;21.70;;;;;;;12.65;100.00;103174.00;1906995;74;39632;-70
2022/03/26 19:23:36;;;;;;;25.40;23.60;;;;;;;12.40;100.00;103167.27;1851754;75;85995;-70
2022/03/26 19:29:40;;;;;;;27.17;25.13;;;;;;;12.49;100.00;103170.02;1870081;75;86365;-70
2022/03/26 19:35:25;;;;;;;29.73;27.67;;;;;;;12.11;100.00;103172.34;1799754;79;85524;-70
2022/03/26 19:41:09;;;;;;;30.57;28.57;;;;;;;12.05;100.00;103180.28;1808595;77;86132;-68
2022/03/26 19:46:54;;;;;;;33.23;31.03;;;;;;;11.92;100.00;103179.95;1907233;73;39765;-72
2022/03/26 19:52:40;;;;;;;33.53;31.33;;;;;;;11.86;100.00;103187.85;1828534;76;86308;-67
2022/03/26 19:58:24;;;;;;;35.10;32.60;;;;;;;11.72;100.00;103198.33;1794184;78;86291;-71
2022/03/26 20:04:09;;;;;;;38.37;35.67;;;;;;;11.54;100.00;103196.11;1801413;77;86525;-67
2022/03/26 20:09:55;;;;;;;47.37;44.17;;;;;;;11.13;100.00;103195.43;1903013;75;86131;-67
2022/03/26 20:15:39;;;;;;;55.53;51.93;;;;;;;11.05;100.00;103209.11;1869228;76;86283;-76
2022/03/26 20:21:23;;;;;;;56.87;53.10;;;;;;;11.10;100.00;103207.89;1820155;78;86407;-68
2022/03/26 20:27:09;;;;;;;56.90;52.77;;;;;;;10.99;100.00;103213.37;1806950;77;86409;-76
2022/03/26 20:32:55;;;;;;;62.57;58.27;;;;;;;10.95;100.00;103222.16;1890453;74;39843;-67
2022/03/26 20:38:40;;;;;;;63.20;59.00;;;;;;;11.11;100.00;103230.99;1795716;78;86414;-66
2022/03/26 20:44:16;;;;;;;71.00;66.23;;;;;;;10.83;100.00;103235.12;1837449;77;86590;-68
2022/03/26 20:46:46;;;;;;;69.62;65.05;;;;;;;10.85;100.00;103246.87;1770581;79;937858;-68
2022/03/26 20:49:16;;;;;;;76.10;70.90;;;;;;;10.98;100.00;103247.82;1782031;79;938841;-68
2022/03/26 20:51:47;;;;;;;71.97;67.37;;;;;;;11.01;100.00;103247.35;1778375;78;939888;-68
2022/03/26 20:57:33;;;;;;;74.87;70.07;;;;;;;11.03;100.00;103247.98;1821626;77;86681;-72
2022/03/26 21:03:19;;;;;;;73.50;68.60;;;;;;;11.07;100.00;103251.47;1864199;76;85763;-70
2022/03/26 21:09:06;;;;;;;70.73;66.00;;;;;;;11.14;100.00;103255.02;1868050;76;86506;-73
2022/03/26 21:11:39;;;;;;;65.95;61.40;;;;;;;11.11;100.00;103260.20;1807601;76;937653;-66
2022/03/26 21:17:24;;;;;;;66.60;62.10;;;;;;;11.15;100.00;103256.73;1783018;78;86839;-66
2022/03/26 21:23:12;;;;;;;67.70;63.17;;;;;;;11.09;100.00;103265.12;1877656;75;85648;-72
2022/03/26 21:28:57;;;;;;;68.63;64.20;;;;;;;10.95;100.00;103268.04;1917929;72;86198;-68
2022/03/26 21:34:42;;;;;;;71.50;66.87;;;;;;;10.91;100.00;103270.97;1866432;75;86963;-68
2022/03/26 21:40:29;;;;;;;73.43;68.73;;;;;;;10.86;100.00;103269.98;1854571;76;86250;-66
2022/03/26 21:46:15;;;;;;;77.80;72.80;;;;;;;10.71;100.00;103277.80;1832250;78;86352;-73
2022/03/26 21:51:59;;;;;;;81.93;77.03;;;;;;;10.62;100.00;103276.38;1926488;73;86714;-74
2022/03/26 21:57:43;;;;;;;90.20;84.47;;;;;;;10.48;100.00;103279.82;1892564;73;39683;-68
2022/03/26 22:03:29;;;;;;;89.93;84.10;;;;;;;10.19;100.00;103281.81;1842286;77;86563;-66
2022/03/26 22:09:13;;;;;;;94.40;88.77;;;;;;;10.05;100.00;103287.42;1835567;75;86547;-66
2022/03/26 22:15:00;;;;;;;90.93;84.97;;;;;;;9.79;100.00;103293.67;1908551;73;86679;-66
2022/03/26 22:20:44;;;;;;;93.00;86.90;;;;;;;9.78;100.00;103294.73;1877845;73;39481;-74
2022/03/26 22:26:33;;;;;;;94.93;88.63;;;;;;;9.46;100.00;103299.33;1868137;76;86685;-74
2022/03/26 22:32:18;;;;;;;98.27;91.63;;;;;;;9.91;100.00;103301.08;1885535;74;86193;-67
2022/03/26 22:38:03;;;;;;;95.30;88.70;;;;;;;10.31;100.00;103300.89;1807816;76;86302;-75
2022/03/26 22:43:48;;;;;;;96.27;89.73;;;;;;;10.65;100.00;103296.26;1894469;74;39665;-69
2022/03/26 22:49:35;;;;;;;98.00;91.30;;;;;;;10.53;100.00;103306.38;1833637;75;86320;-69
2022/03/26 22:55:21;;;;;;;96.27;89.83;;;;;;;10.74;100.00;103306.55;1885099;74;86463;-89
2022/03/26 23:01:16;;;;;;;96.60;89.83;;;;;;;10.48;100.00;103314.56;1809549;77;86398;-69
2022/03/26 23:07:01;;;;;;;99.43;92.00;;;;;;;10.14;100.00;103316.34;1911130;72;85315;-74
2022/03/26 23:12:48;;;;;;;96.43;89.47;;;;;;;9.98;100.00;103312.14;1902846;74;40566;-74
2022/03/26 23:18:32;;;;;;;98.97;92.07;;;;;;;10.20;100.00;103314.94;1839336;75;86419;-74
2022/03/26 23:24:17;;;;;;;94.23;87.73;;;;;;;10.10;100.00;103313.14;1866773;76;85681;-69
2022/03/26 23:30:01;;;;;;;93.90;87.63;;;;;;;10.24;100.00;103305.62;1936315;73;86324;-74
2022/03/26 23:35:45;;;;;;;90.47;84.47;;;;;;;10.16;100.00;103306.73;1869517;73;39735;-69
2022/03/26 23:41:29;;;;;;;91.43;85.37;;;;;;;9.89;100.00;103308.77;1831508;76;86473;-70
2022/03/26 23:47:13;;;;;;;89.27;83.13;;;;;;;9.98;100.00;103309.36;1842229;76;85390;-74
2022/03/26 23:52:58;;;;;;;92.50;86.40;;;;;;;9.60;100.00;103312.95;1934467;71;86352;-69
2022/03/26 23:58:41;;;;;;;90.53;84.33;;;;;;;9.42;100.00;103316.09;1861099;75;86275;-74
